sensor_id;sensor_type;location;lat;lon;timestamp;P1;durP1;ratioP1;P2;durP2;ratioP2
17390;SDS011;8813;54.444;18.446;2023-02-11T00:00:57;12.10;;;5.23;;
17390;SDS011;8813;54.444;18.446;2023-02-11T00:03:24;13.83;;;7.80;;
17390;SDS011;8813;54.444;18.446;2023-02-11T00:05:58;9.30;;;5.20;;
17390;SDS011;8813;54.444;18.446;2023-02-11T00:08:25;14.70;;;7.37;;
17390;SDS011;8813;54.444;18.446;2023-02-11T00:10:52;7.27;;;4.73;;
17390;SDS011;8813;54.444;18.446;2023-02-11T00:13:21;4.40;;;3.93;;
17390;SDS011;8813;54.444;18.446;2023-02-11T00:15:48;4.90;;;3.57;;
17390;SDS011;8813;54.444;18.446;2023-02-11T00:18:16;13.40;;;9.13;;
17390;SDS011;8813;54.444;18.446;2023-02-11T00:20:42;17.87;;;9.30;;
17390;SDS011;8813;54.444;18.446;2023-02-11T00:23:09;12.67;;;7.57;;
17390;SDS011;8813;54.444;18.446;2023-02-11T00:25:37;9.60;;;6.27;;
17390;SDS011;8813;54.444;18.446;2023-02-11T00:28:05;7.70;;;4.37;;
17390;SDS011;8813;54.444;18.446;2023-02-11T00:30:33;4.57;;;4.17;;
17390;SDS011;8813;54.444;18.446;2023-02-11T00:33:00;14.60;;;9.00;;
17390;SDS011;8813;54.444;18.446;2023-02-11T00:35:28;6.73;;;6.13;;
17390;SDS011;8813;54.444;18.446;2023-02-11T00:37:55;16.23;;;9.93;;
17390;SDS011;8813;54.444;18.446;2023-02-11T00:40:22;6.50;;;5.90;;
17390;SDS011;8813;54.444;18.446;2023-02-11T00:42:49;9.80;;;7.90;;
17390;SDS011;8813;54.444;18.446;2023-02-11T00:45:16;12.67;;;7.27;;
17390;SDS011;8813;54.444;18.446;2023-02-11T00:47:44;11.40;;;8.47;;
17390;SDS011;8813;54.444;18.446;2023-02-11T00:50:11;10.63;;;7.23;;
17390;SDS011;8813;54.444;18.446;2023-02-11T00:52:38;15.18;;;10.55;;
17390;SDS011;8813;54.444;18.446;2023-02-11T00:55:05;17.40;;;6.10;;
17390;SDS011;8813;54.444;18.446;2023-02-11T00:57:32;15.43;;;10.53;;
17390;SDS011;8813;54.444;18.446;2023-02-11T00:59:59;7.85;;;5.50;;
17390;SDS011;8813;54.444;18.446;2023-02-11T01:02:26;11.87;;;7.60;;
17390;SDS011;8813;54.444;18.446;2023-02-11T01:04:54;21.37;;;11.00;;
17390;SDS011;8813;54.444;18.446;2023-02-11T01:07:23;19.57;;;11.27;;
17390;SDS011;8813;54.444;18.446;2023-02-11T01:09:50;19.20;;;11.53;;
17390;SDS011;8813;54.444;18.446;2023-02-11T01:12:17;6.60;;;3.80;;
17390;SDS011;8813;54.444;18.446;2023-02-11T01:14:44;27.00;;;15.53;;
17390;SDS011;8813;54.444;18.446;2023-02-11T01:17:11;14.80;;;8.57;;
17390;SDS011;8813;54.444;18.446;2023-02-11T01:19:38;18.33;;;11.43;;
17390;SDS011;8813;54.444;18.446;2023-02-11T01:22:06;17.97;;;11.07;;
17390;SDS011;8813;54.444;18.446;2023-02-11T01:24:33;20.07;;;8.97;;
17390;SDS011;8813;54.444;18.446;2023-02-11T01:27:00;17.20;;;11.17;;
17390;SDS011;8813;54.444;18.446;2023-02-11T01:29:27;24.67;;;14.40;;
17390;SDS011;8813;54.444;18.446;2023-02-11T01:31:54;4.97;;;4.63;;
17390;SDS011;8813;54.444;18.446;2023-02-11T01:34:21;19.00;;;13.27;;
17390;SDS011;8813;54.444;18.446;2023-02-11T01:36:47;22.33;;;12.20;;
17390;SDS011;8813;54.444;18.446;2023-02-11T01:39:16;7.27;;;5.67;;
17390;SDS011;8813;54.444;18.446;2023-02-11T01:41:43;24.20;;;12.10;;
17390;SDS011;8813;54.444;18.446;2023-02-11T01:44:22;16.37;;;10.30;;
17390;SDS011;8813;54.444;18.446;2023-02-11T01:46:50;11.17;;;7.43;;
17390;SDS011;8813;54.444;18.446;2023-02-11T01:49:18;24.73;;;10.90;;
17390;SDS011;8813;54.444;18.446;2023-02-11T01:51:49;23.60;;;15.30;;
17390;SDS011;8813;54.444;18.446;2023-02-11T01:54:21;27.47;;;15.43;;
17390;SDS011;8813;54.444;18.446;2023-02-11T01:57:05;23.90;;;15.47;;
17390;SDS011;8813;54.444;18.446;2023-02-11T01:59:51;27.60;;;11.87;;
17390;SDS011;8813;54.444;18.446;2023-02-11T02:02:22;6.43;;;5.80;;
17390;SDS011;8813;54.444;18.446;2023-02-11T02:04:59;24.00;;;14.60;;
17390;SDS011;8813;54.444;18.446;2023-02-11T02:07:31;21.30;;;11.67;;
17390;SDS011;8813;54.444;18.446;2023-02-11T02:10:02;20.23;;;12.07;;
17390;SDS011;8813;54.444;18.446;2023-02-11T02:12:31;14.87;;;9.20;;
17390;SDS011;8813;54.444;18.446;2023-02-11T02:15:10;23.40;;;11.07;;
17390;SDS011;8813;54.444;18.446;2023-02-11T02:17:45;18.23;;;12.03;;
17390;SDS011;8813;54.444;18.446;2023-02-11T02:29:07;14.77;;;9.80;;
17390;SDS011;8813;54.444;18.446;2023-02-11T02:31:52;25.40;;;15.27;;
17390;SDS011;8813;54.444;18.446;2023-02-11T02:34:27;19.63;;;10.20;;
17390;SDS011;8813;54.444;18.446;2023-02-11T02:36:57;20.30;;;10.93;;
17390;SDS011;8813;54.444;18.446;2023-02-11T02:39:30;14.87;;;9.93;;
17390;SDS011;8813;54.444;18.446;2023-02-11T02:41:59;6.87;;;6.23;;
17390;SDS011;8813;54.444;18.446;2023-02-11T02:44:26;17.50;;;10.37;;
17390;SDS011;8813;54.444;18.446;2023-02-11T02:46:53;18.90;;;10.73;;
17390;SDS011;8813;54.444;18.446;2023-02-11T02:49:20;19.60;;;11.90;;
17390;SDS011;8813;54.444;18.446;2023-02-11T02:51:54;10.27;;;7.60;;
17390;SDS011;8813;54.444;18.446;2023-02-11T02:57:37;11.83;;;8.33;;
17390;SDS011;8813;54.444;18.446;2023-02-11T03:00:11;20.13;;;12.87;;
17390;SDS011;8813;54.444;18.446;2023-02-11T03:02:46;24.37;;;14.47;;
17390;SDS011;8813;54.444;18.446;2023-02-11T03:05:20;20.23;;;13.53;;
17390;SDS011;8813;54.444;18.446;2023-02-11T03:07:51;16.07;;;10.33;;
17390;SDS011;8813;54.444;18.446;2023-02-11T03:10:24;18.30;;;12.17;;
17390;SDS011;8813;54.444;18.446;2023-02-11T03:12:52;19.23;;;12.43;;
17390;SDS011;8813;54.444;18.446;2023-02-11T03:15:20;17.40;;;11.60;;
17390;SDS011;8813;54.444;18.446;2023-02-11T03:17:49;18.67;;;11.27;;
17390;SDS011;8813;54.444;18.446;2023-02-11T03:20:17;15.00;;;10.83;;
17390;SDS011;8813;54.444;18.446;2023-02-11T03:22:47;13.00;;;8.40;;
17390;SDS011;8813;54.444;18.446;2023-02-11T03:25:16;17.73;;;12.53;;
17390;SDS011;8813;54.444;18.446;2023-02-11T03:27:45;10.93;;;9.03;;
17390;SDS011;8813;54.444;18.446;2023-02-11T03:30:17;14.00;;;9.67;;
17390;SDS011;8813;54.444;18.446;2023-02-11T03:32:47;25.53;;;15.43;;
17390;SDS011;8813;54.444;18.446;2023-02-11T03:35:19;6.27;;;5.93;;
17390;SDS011;8813;54.444;18.446;2023-02-11T03:37:48;9.07;;;8.37;;
17390;SDS011;8813;54.444;18.446;2023-02-11T03:40:19;32.13;;;13.20;;
17390;SDS011;8813;54.444;18.446;2023-02-11T03:42:48;12.50;;;11.00;;
17390;SDS011;8813;54.444;18.446;2023-02-11T03:45:19;24.57;;;12.23;;
17390;SDS011;8813;54.444;18.446;2023-02-11T03:47:48;19.33;;;15.37;;
17390;SDS011;8813;54.444;18.446;2023-02-11T03:50:19;17.67;;;15.23;;
17390;SDS011;8813;54.444;18.446;2023-02-11T03:52:48;11.40;;;10.30;;
17390;SDS011;8813;54.444;18.446;2023-02-11T03:55:17;14.07;;;12.67;;
17390;SDS011;8813;54.444;18.446;2023-02-11T03:57:46;12.47;;;11.23;;
17390;SDS011;8813;54.444;18.446;2023-02-11T04:00:13;10.30;;;9.60;;
17390;SDS011;8813;54.444;18.446;2023-02-11T04:02:41;15.13;;;13.70;;
17390;SDS011;8813;54.444;18.446;2023-02-11T04:05:09;13.00;;;11.77;;
17390;SDS011;8813;54.444;18.446;2023-02-11T04:07:37;11.43;;;10.57;;
17390;SDS011;8813;54.444;18.446;2023-02-11T04:10:04;15.10;;;13.57;;
17390;SDS011;8813;54.444;18.446;2023-02-11T04:12:33;13.47;;;12.30;;
17390;SDS011;8813;54.444;18.446;2023-02-11T04:14:59;12.97;;;12.27;;
17390;SDS011;8813;54.444;18.446;2023-02-11T04:17:26;14.97;;;13.77;;
17390;SDS011;8813;54.444;18.446;2023-02-11T04:19:53;17.53;;;16.07;;
17390;SDS011;8813;54.444;18.446;2023-02-11T04:22:20;14.70;;;12.87;;
17390;SDS011;8813;54.444;18.446;2023-02-11T04:24:47;14.37;;;13.13;;
17390;SDS011;8813;54.444;18.446;2023-02-11T04:27:14;10.87;;;10.27;;
17390;SDS011;8813;54.444;18.446;2023-02-11T04:29:42;12.00;;;11.50;;
17390;SDS011;8813;54.444;18.446;2023-02-11T04:32:09;12.60;;;11.80;;
17390;SDS011;8813;54.444;18.446;2023-02-11T04:34:36;14.73;;;13.70;;
17390;SDS011;8813;54.444;18.446;2023-02-11T04:37:03;12.57;;;11.67;;
17390;SDS011;8813;54.444;18.446;2023-02-11T04:39:30;12.23;;;11.47;;
17390;SDS011;8813;54.444;18.446;2023-02-11T04:41:57;13.53;;;12.53;;
17390;SDS011;8813;54.444;18.446;2023-02-11T04:44:24;15.03;;;13.83;;
17390;SDS011;8813;54.444;18.446;2023-02-11T04:46:54;12.70;;;11.77;;
17390;SDS011;8813;54.444;18.446;2023-02-11T04:49:21;19.23;;;17.47;;
17390;SDS011;8813;54.444;18.446;2023-02-11T04:51:47;14.47;;;13.50;;
17390;SDS011;8813;54.444;18.446;2023-02-11T04:54:14;11.80;;;11.40;;
17390;SDS011;8813;54.444;18.446;2023-02-11T04:56:41;16.30;;;15.10;;
17390;SDS011;8813;54.444;18.446;2023-02-11T04:59:08;16.07;;;15.10;;
17390;SDS011;8813;54.444;18.446;2023-02-11T05:01:35;15.47;;;14.57;;
17390;SDS011;8813;54.444;18.446;2023-02-11T05:04:04;15.97;;;15.03;;
17390;SDS011;8813;54.444;18.446;2023-02-11T05:06:30;15.40;;;14.60;;
17390;SDS011;8813;54.444;18.446;2023-02-11T05:08:57;16.90;;;15.70;;
17390;SDS011;8813;54.444;18.446;2023-02-11T05:11:24;19.57;;;17.97;;
17390;SDS011;8813;54.444;18.446;2023-02-11T05:13:51;20.40;;;18.77;;
17390;SDS011;8813;54.444;18.446;2023-02-11T05:16:18;15.87;;;15.07;;
17390;SDS011;8813;54.444;18.446;2023-02-11T05:18:45;17.00;;;15.83;;
17390;SDS011;8813;54.444;18.446;2023-02-11T05:21:14;16.03;;;15.13;;
17390;SDS011;8813;54.444;18.446;2023-02-11T05:23:42;18.67;;;17.03;;
17390;SDS011;8813;54.444;18.446;2023-02-11T05:26:09;15.90;;;14.87;;
17390;SDS011;8813;54.444;18.446;2023-02-11T05:28:37;17.83;;;16.53;;
17390;SDS011;8813;54.444;18.446;2023-02-11T05:31:04;16.00;;;15.00;;
17390;SDS011;8813;54.444;18.446;2023-02-11T05:33:31;16.40;;;15.40;;
17390;SDS011;8813;54.444;18.446;2023-02-11T05:35:58;13.93;;;13.17;;
17390;SDS011;8813;54.444;18.446;2023-02-11T05:38:27;15.23;;;14.43;;
17390;SDS011;8813;54.444;18.446;2023-02-11T05:40:55;15.83;;;14.87;;
17390;SDS011;8813;54.444;18.446;2023-02-11T05:43:22;14.57;;;13.97;;
17390;SDS011;8813;54.444;18.446;2023-02-11T05:45:48;16.83;;;15.67;;
17390;SDS011;8813;54.444;18.446;2023-02-11T05:48:15;16.17;;;15.47;;
17390;SDS011;8813;54.444;18.446;2023-02-11T05:50:43;18.13;;;17.07;;
17390;SDS011;8813;54.444;18.446;2023-02-11T05:53:10;16.50;;;15.80;;
17390;SDS011;8813;54.444;18.446;2023-02-11T05:55:38;16.00;;;15.30;;
17390;SDS011;8813;54.444;18.446;2023-02-11T05:58:05;16.90;;;16.03;;
17390;SDS011;8813;54.444;18.446;2023-02-11T06:00:33;18.00;;;17.00;;
17390;SDS011;8813;54.444;18.446;2023-02-11T06:03:00;15.43;;;14.10;;
17390;SDS011;8813;54.444;18.446;2023-02-11T06:05:28;14.10;;;13.50;;
17390;SDS011;8813;54.444;18.446;2023-02-11T06:07:55;13.63;;;12.90;;
17390;SDS011;8813;54.444;18.446;2023-02-11T06:10:22;13.17;;;12.67;;
17390;SDS011;8813;54.444;18.446;2023-02-11T06:12:50;16.90;;;15.80;;
17390;SDS011;8813;54.444;18.446;2023-02-11T06:15:17;14.60;;;13.77;;
17390;SDS011;8813;54.444;18.446;2023-02-11T06:17:44;13.20;;;12.63;;
17390;SDS011;8813;54.444;18.446;2023-02-11T06:20:11;12.43;;;11.93;;
17390;SDS011;8813;54.444;18.446;2023-02-11T06:22:38;17.37;;;15.73;;
17390;SDS011;8813;54.444;18.446;2023-02-11T06:25:05;14.43;;;13.47;;
17390;SDS011;8813;54.444;18.446;2023-02-11T06:27:32;12.33;;;11.73;;
17390;SDS011;8813;54.444;18.446;2023-02-11T06:30:01;16.20;;;15.10;;
17390;SDS011;8813;54.444;18.446;2023-02-11T06:32:28;15.83;;;14.90;;
17390;SDS011;8813;54.444;18.446;2023-02-11T06:34:55;16.30;;;15.00;;
17390;SDS011;8813;54.444;18.446;2023-02-11T06:37:22;15.50;;;14.60;;
17390;SDS011;8813;54.444;18.446;2023-02-11T06:39:49;14.00;;;13.50;;
17390;SDS011;8813;54.444;18.446;2023-02-11T06:42:16;15.37;;;14.37;;
17390;SDS011;8813;54.444;18.446;2023-02-11T06:44:43;14.73;;;13.90;;
17390;SDS011;8813;54.444;18.446;2023-02-11T06:47:11;13.10;;;12.60;;
17390;SDS011;8813;54.444;18.446;2023-02-11T06:49:38;12.63;;;12.07;;
17390;SDS011;8813;54.444;18.446;2023-02-11T06:52:04;13.60;;;12.93;;
17390;SDS011;8813;54.444;18.446;2023-02-11T06:54:31;11.37;;;10.97;;
17390;SDS011;8813;54.444;18.446;2023-02-11T06:56:58;13.40;;;12.70;;
17390;SDS011;8813;54.444;18.446;2023-02-11T06:59:25;15.70;;;14.50;;
17390;SDS011;8813;54.444;18.446;2023-02-11T07:01:52;11.88;;;11.40;;
17390;SDS011;8813;54.444;18.446;2023-02-11T07:04:20;14.77;;;13.87;;
17390;SDS011;8813;54.444;18.446;2023-02-11T07:06:47;14.45;;;13.65;;
17390;SDS011;8813;54.444;18.446;2023-02-11T07:09:13;16.38;;;15.43;;
17390;SDS011;8813;54.444;18.446;2023-02-11T07:11:40;15.77;;;14.97;;
17390;SDS011;8813;54.444;18.446;2023-02-11T07:14:07;16.67;;;15.77;;
17390;SDS011;8813;54.444;18.446;2023-02-11T07:16:35;17.27;;;16.40;;
17390;SDS011;8813;54.444;18.446;2023-02-11T07:19:02;17.20;;;16.17;;
17390;SDS011;8813;54.444;18.446;2023-02-11T07:21:31;16.10;;;15.30;;
17390;SDS011;8813;54.444;18.446;2023-02-11T07:23:57;15.63;;;14.85;;
17390;SDS011;8813;54.444;18.446;2023-02-11T07:26:24;16.15;;;15.32;;
17390;SDS011;8813;54.444;18.446;2023-02-11T07:28:53;15.65;;;14.88;;
17390;SDS011;8813;54.444;18.446;2023-02-11T07:31:22;15.20;;;14.50;;
17390;SDS011;8813;54.444;18.446;2023-02-11T07:33:51;18.42;;;17.10;;
17390;SDS011;8813;54.444;18.446;2023-02-11T07:36:18;16.38;;;15.50;;
17390;SDS011;8813;54.444;18.446;2023-02-11T07:38:47;14.10;;;13.57;;
17390;SDS011;8813;54.444;18.446;2023-02-11T07:41:14;15.32;;;14.73;;
17390;SDS011;8813;54.444;18.446;2023-02-11T07:43:43;15.85;;;14.98;;
17390;SDS011;8813;54.444;18.446;2023-02-11T07:46:11;14.35;;;13.45;;
17390;SDS011;8813;54.444;18.446;2023-02-11T07:48:39;13.82;;;13.23;;
17390;SDS011;8813;54.444;18.446;2023-02-11T07:51:07;13.95;;;13.07;;
17390;SDS011;8813;54.444;18.446;2023-02-11T07:53:34;13.40;;;12.73;;
17390;SDS011;8813;54.444;18.446;2023-02-11T07:56:03;14.93;;;14.02;;
17390;SDS011;8813;54.444;18.446;2023-02-11T07:58:32;13.43;;;12.68;;
17390;SDS011;8813;54.444;18.446;2023-02-11T08:00:59;11.93;;;11.25;;
17390;SDS011;8813;54.444;18.446;2023-02-11T08:03:27;10.90;;;10.35;;
17390;SDS011;8813;54.444;18.446;2023-02-11T08:05:57;11.27;;;10.68;;
17390;SDS011;8813;54.444;18.446;2023-02-11T08:08:24;9.40;;;9.07;;
17390;SDS011;8813;54.444;18.446;2023-02-11T08:10:51;10.55;;;10.05;;
17390;SDS011;8813;54.444;18.446;2023-02-11T08:13:20;11.10;;;10.50;;
17390;SDS011;8813;54.444;18.446;2023-02-11T08:15:46;9.90;;;9.40;;
17390;SDS011;8813;54.444;18.446;2023-02-11T08:18:13;10.15;;;9.65;;
17390;SDS011;8813;54.444;18.446;2023-02-11T08:20:40;8.80;;;8.40;;
17390;SDS011;8813;54.444;18.446;2023-02-11T08:23:07;10.25;;;9.85;;
17390;SDS011;8813;54.444;18.446;2023-02-11T08:25:34;9.90;;;9.50;;
17390;SDS011;8813;54.444;18.446;2023-02-11T08:28:01;11.20;;;10.65;;
17390;SDS011;8813;54.444;18.446;2023-02-11T08:30:29;9.52;;;9.10;;
17390;SDS011;8813;54.444;18.446;2023-02-11T08:32:56;10.95;;;10.20;;
17390;SDS011;8813;54.444;18.446;2023-02-11T08:35:23;11.43;;;10.82;;
17390;SDS011;8813;54.444;18.446;2023-02-11T08:37:50;10.05;;;9.75;;
17390;SDS011;8813;54.444;18.446;2023-02-11T08:40:17;11.32;;;10.82;;
17390;SDS011;8813;54.444;18.446;2023-02-11T08:42:44;11.00;;;10.50;;
17390;SDS011;8813;54.444;18.446;2023-02-11T08:45:11;11.35;;;10.55;;
17390;SDS011;8813;54.444;18.446;2023-02-11T08:47:39;10.57;;;10.07;;
17390;SDS011;8813;54.444;18.446;2023-02-11T08:50:06;10.10;;;9.70;;
17390;SDS011;8813;54.444;18.446;2023-02-11T08:52:34;9.13;;;8.85;;
17390;SDS011;8813;54.444;18.446;2023-02-11T08:55:01;9.93;;;9.48;;
17390;SDS011;8813;54.444;18.446;2023-02-11T08:57:28;10.52;;;10.02;;
17390;SDS011;8813;54.444;18.446;2023-02-11T08:59:55;9.68;;;9.38;;
17390;SDS011;8813;54.444;18.446;2023-02-11T09:02:24;9.23;;;8.93;;
17390;SDS011;8813;54.444;18.446;2023-02-11T09:04:56;10.93;;;10.32;;
17390;SDS011;8813;54.444;18.446;2023-02-11T09:07:23;10.52;;;10.18;;
17390;SDS011;8813;54.444;18.446;2023-02-11T09:09:49;10.27;;;9.98;;
17390;SDS011;8813;54.444;18.446;2023-02-11T09:12:17;11.73;;;11.32;;
17390;SDS011;8813;54.444;18.446;2023-02-11T09:14:44;12.73;;;12.13;;
17390;SDS011;8813;54.444;18.446;2023-02-11T09:17:10;13.32;;;12.82;;
17390;SDS011;8813;54.444;18.446;2023-02-11T09:19:37;13.80;;;13.20;;
17390;SDS011;8813;54.444;18.446;2023-02-11T09:22:06;12.43;;;11.93;;
17390;SDS011;8813;54.444;18.446;2023-02-11T09:24:32;11.45;;;11.10;;
17390;SDS011;8813;54.444;18.446;2023-02-11T09:26:59;11.90;;;11.40;;
17390;SDS011;8813;54.444;18.446;2023-02-11T09:29:26;12.32;;;11.93;;
17390;SDS011;8813;54.444;18.446;2023-02-11T09:31:53;11.73;;;11.32;;
17390;SDS011;8813;54.444;18.446;2023-02-11T09:34:20;14.38;;;13.77;;
17390;SDS011;8813;54.444;18.446;2023-02-11T09:36:47;20.20;;;18.38;;
17390;SDS011;8813;54.444;18.446;2023-02-11T09:39:16;14.38;;;13.68;;
17390;SDS011;8813;54.444;18.446;2023-02-11T09:41:52;12.38;;;11.98;;
17390;SDS011;8813;54.444;18.446;2023-02-11T09:44:25;12.20;;;11.80;;
17390;SDS011;8813;54.444;18.446;2023-02-11T09:46:53;12.80;;;12.30;;
17390;SDS011;8813;54.444;18.446;2023-02-11T09:49:24;12.40;;;12.00;;
17390;SDS011;8813;54.444;18.446;2023-02-11T09:51:56;12.27;;;11.88;;
17390;SDS011;8813;54.444;18.446;2023-02-11T09:54:30;12.30;;;11.80;;
17390;SDS011;8813;54.444;18.446;2023-02-11T09:57:00;11.90;;;11.50;;
17390;SDS011;8813;54.444;18.446;2023-02-11T09:59:27;12.88;;;12.23;;
17390;SDS011;8813;54.444;18.446;2023-02-11T10:01:56;13.27;;;12.57;;
17390;SDS011;8813;54.444;18.446;2023-02-11T10:04:32;12.65;;;12.15;;
17390;SDS011;8813;54.444;18.446;2023-02-11T10:07:15;14.60;;;13.90;;
17390;SDS011;8813;54.444;18.446;2023-02-11T10:09:50;12.40;;;11.90;;
17390;SDS011;8813;54.444;18.446;2023-02-11T10:15:13;12.40;;;11.90;;
17390;SDS011;8813;54.444;18.446;2023-02-11T10:17:54;12.05;;;11.65;;
17390;SDS011;8813;54.444;18.446;2023-02-11T10:20:29;13.20;;;12.52;;
17390;SDS011;8813;54.444;18.446;2023-02-11T10:22:58;11.88;;;11.48;;
17390;SDS011;8813;54.444;18.446;2023-02-11T10:25:29;11.80;;;11.32;;
17390;SDS011;8813;54.444;18.446;2023-02-11T10:28:00;11.18;;;10.88;;
17390;SDS011;8813;54.444;18.446;2023-02-11T10:30:37;11.25;;;10.70;;
17390;SDS011;8813;54.444;18.446;2023-02-11T10:33:10;11.80;;;11.27;;
17390;SDS011;8813;54.444;18.446;2023-02-11T10:35:41;11.50;;;11.00;;
17390;SDS011;8813;54.444;18.446;2023-02-11T10:38:10;10.80;;;10.50;;
17390;SDS011;8813;54.444;18.446;2023-02-11T10:40:38;12.68;;;12.27;;
17390;SDS011;8813;54.444;18.446;2023-02-11T10:43:06;11.65;;;11.15;;
17390;SDS011;8813;54.444;18.446;2023-02-11T10:45:37;11.20;;;10.88;;
17390;SDS011;8813;54.444;18.446;2023-02-11T10:48:05;11.50;;;11.20;;
17390;SDS011;8813;54.444;18.446;2023-02-11T10:51:07;12.93;;;12.20;;
17390;SDS011;8813;54.444;18.446;2023-02-11T10:53:37;11.35;;;11.05;;
17390;SDS011;8813;54.444;18.446;2023-02-11T10:56:05;11.40;;;11.00;;
17390;SDS011;8813;54.444;18.446;2023-02-11T10:58:35;11.23;;;10.73;;
17390;SDS011;8813;54.444;18.446;2023-02-11T11:01:05;12.30;;;11.80;;
17390;SDS011;8813;54.444;18.446;2023-02-11T11:03:33;11.38;;;10.93;;
17390;SDS011;8813;54.444;18.446;2023-02-11T11:06:07;11.43;;;10.73;;
17390;SDS011;8813;54.444;18.446;2023-02-11T11:08:41;10.38;;;10.05;;
17390;SDS011;8813;54.444;18.446;2023-02-11T11:11:10;10.77;;;10.00;;
17390;SDS011;8813;54.444;18.446;2023-02-11T11:13:38;11.88;;;10.82;;
17390;SDS011;8813;54.444;18.446;2023-02-11T11:16:10;9.60;;;9.30;;
17390;SDS011;8813;54.444;18.446;2023-02-11T11:18:43;10.45;;;10.02;;
17390;SDS011;8813;54.444;18.446;2023-02-11T11:21:13;9.50;;;9.30;;
17390;SDS011;8813;54.444;18.446;2023-02-11T11:23:45;9.10;;;8.80;;
17390;SDS011;8813;54.444;18.446;2023-02-11T11:26:15;9.80;;;9.25;;
17390;SDS011;8813;54.444;18.446;2023-02-11T11:28:49;9.23;;;8.93;;
17390;SDS011;8813;54.444;18.446;2023-02-11T11:31:19;9.30;;;9.00;;
17390;SDS011;8813;54.444;18.446;2023-02-11T11:33:50;8.30;;;8.10;;
17390;SDS011;8813;54.444;18.446;2023-02-11T11:36:19;10.05;;;9.55;;
17390;SDS011;8813;54.444;18.446;2023-02-11T11:38:48;9.82;;;9.00;;
17390;SDS011;8813;54.444;18.446;2023-02-11T11:41:22;9.27;;;8.93;;
17390;SDS011;8813;54.444;18.446;2023-02-11T11:43:56;9.30;;;9.00;;
17390;SDS011;8813;54.444;18.446;2023-02-11T11:46:26;8.40;;;8.10;;
17390;SDS011;8813;54.444;18.446;2023-02-11T11:49:06;10.00;;;9.68;;
17390;SDS011;8813;54.444;18.446;2023-02-11T11:51:38;8.68;;;8.20;;
17390;SDS011;8813;54.444;18.446;2023-02-11T11:54:09;8.50;;;8.00;;
17390;SDS011;8813;54.444;18.446;2023-02-11T11:56:39;7.70;;;7.40;;
17390;SDS011;8813;54.444;18.446;2023-02-11T11:59:09;7.40;;;7.20;;
17390;SDS011;8813;54.444;18.446;2023-02-11T12:01:42;7.75;;;7.55;;
17390;SDS011;8813;54.444;18.446;2023-02-11T12:04:30;9.07;;;8.52;;
17390;SDS011;8813;54.444;18.446;2023-02-11T12:07:10;8.00;;;7.45;;
17390;SDS011;8813;54.444;18.446;2023-02-11T12:09:43;6.90;;;6.60;;
17390;SDS011;8813;54.444;18.446;2023-02-11T12:15:11;7.32;;;6.97;;
17390;SDS011;8813;54.444;18.446;2023-02-11T12:17:47;6.13;;;6.03;;
17390;SDS011;8813;54.444;18.446;2023-02-11T12:20:25;6.20;;;5.95;;
17390;SDS011;8813;54.444;18.446;2023-02-11T12:23:02;6.00;;;5.90;;
17390;SDS011;8813;54.444;18.446;2023-02-11T12:25:45;6.80;;;6.40;;
17390;SDS011;8813;54.444;18.446;2023-02-11T12:28:21;6.90;;;6.43;;
17390;SDS011;8813;54.444;18.446;2023-02-11T12:30:56;7.00;;;6.80;;
17390;SDS011;8813;54.444;18.446;2023-02-11T12:33:33;9.23;;;8.93;;
17390;SDS011;8813;54.444;18.446;2023-02-11T12:36:16;10.25;;;9.60;;
17390;SDS011;8813;54.444;18.446;2023-02-11T12:38:52;6.82;;;6.40;;
17390;SDS011;8813;54.444;18.446;2023-02-11T12:41:30;6.05;;;5.75;;
17390;SDS011;8813;54.444;18.446;2023-02-11T12:44:22;6.28;;;6.00;;
17390;SDS011;8813;54.444;18.446;2023-02-11T12:46:54;7.55;;;7.15;;
17390;SDS011;8813;54.444;18.446;2023-02-11T12:49:31;6.80;;;6.47;;
17390;SDS011;8813;54.444;18.446;2023-02-11T12:52:22;6.00;;;5.90;;
17390;SDS011;8813;54.444;18.446;2023-02-11T12:54:55;6.15;;;6.00;;
17390;SDS011;8813;54.444;18.446;2023-02-11T12:57:24;5.70;;;5.60;;
17390;SDS011;8813;54.444;18.446;2023-02-11T12:59:54;5.43;;;5.32;;
17390;SDS011;8813;54.444;18.446;2023-02-11T13:02:28;6.32;;;6.05;;
17390;SDS011;8813;54.444;18.446;2023-02-11T13:05:00;7.00;;;6.60;;
17390;SDS011;8813;54.444;18.446;2023-02-11T13:07:33;6.22;;;6.03;;
17390;SDS011;8813;54.444;18.446;2023-02-11T13:10:03;5.82;;;5.63;;
17390;SDS011;8813;54.444;18.446;2023-02-11T13:12:32;5.57;;;5.47;;
17390;SDS011;8813;54.444;18.446;2023-02-11T13:15:17;5.72;;;5.63;;
17390;SDS011;8813;54.444;18.446;2023-02-11T13:17:46;5.20;;;5.10;;
17390;SDS011;8813;54.444;18.446;2023-02-11T13:20:19;8.00;;;6.10;;
17390;SDS011;8813;54.444;18.446;2023-02-11T13:22:52;4.95;;;4.85;;
17390;SDS011;8813;54.444;18.446;2023-02-11T13:25:24;5.47;;;5.38;;
17390;SDS011;8813;54.444;18.446;2023-02-11T13:27:56;5.05;;;4.80;;
17390;SDS011;8813;54.444;18.446;2023-02-11T13:30:27;6.00;;;5.50;;
17390;SDS011;8813;54.444;18.446;2023-02-11T13:33:16;5.57;;;5.47;;
17390;SDS011;8813;54.444;18.446;2023-02-11T13:35:47;4.90;;;4.80;;
17390;SDS011;8813;54.444;18.446;2023-02-11T13:38:20;4.80;;;4.70;;
17390;SDS011;8813;54.444;18.446;2023-02-11T13:40:59;4.60;;;4.50;;
17390;SDS011;8813;54.444;18.446;2023-02-11T13:43:28;4.57;;;4.47;;
17390;SDS011;8813;54.444;18.446;2023-02-11T13:45:57;5.65;;;5.32;;
17390;SDS011;8813;54.444;18.446;2023-02-11T13:48:25;4.95;;;4.85;;
17390;SDS011;8813;54.444;18.446;2023-02-11T13:50:55;4.80;;;4.60;;
17390;SDS011;8813;54.444;18.446;2023-02-11T13:53:26;4.85;;;4.60;;
17390;SDS011;8813;54.444;18.446;2023-02-11T13:56:03;4.80;;;4.70;;
17390;SDS011;8813;54.444;18.446;2023-02-11T13:58:33;4.68;;;4.57;;
17390;SDS011;8813;54.444;18.446;2023-02-11T14:01:04;4.28;;;4.18;;
17390;SDS011;8813;54.444;18.446;2023-02-11T14:03:33;4.70;;;4.60;;
17390;SDS011;8813;54.444;18.446;2023-02-11T14:09:57;4.40;;;4.30;;
17390;SDS011;8813;54.444;18.446;2023-02-11T14:12:32;4.20;;;4.10;;
17390;SDS011;8813;54.444;18.446;2023-02-11T14:15:19;4.85;;;4.68;;
17390;SDS011;8813;54.444;18.446;2023-02-11T14:17:48;3.50;;;3.30;;
17390;SDS011;8813;54.444;18.446;2023-02-11T14:23:17;3.70;;;3.40;;
17390;SDS011;8813;54.444;18.446;2023-02-11T14:25:52;3.95;;;3.60;;
17390;SDS011;8813;54.444;18.446;2023-02-11T14:28:26;2.80;;;2.80;;
17390;SDS011;8813;54.444;18.446;2023-02-11T14:30:59;3.83;;;3.67;;
17390;SDS011;8813;54.444;18.446;2023-02-11T14:33:45;4.10;;;3.90;;
17390;SDS011;8813;54.444;18.446;2023-02-11T14:36:33;2.70;;;2.70;;
17390;SDS011;8813;54.444;18.446;2023-02-11T14:39:13;4.05;;;3.85;;
17390;SDS011;8813;54.444;18.446;2023-02-11T14:41:47;2.70;;;2.70;;
17390;SDS011;8813;54.444;18.446;2023-02-11T14:44:17;2.70;;;2.70;;
17390;SDS011;8813;54.444;18.446;2023-02-11T14:46:48;3.20;;;3.10;;
17390;SDS011;8813;54.444;18.446;2023-02-11T14:49:19;2.85;;;2.80;;
17390;SDS011;8813;54.444;18.446;2023-02-11T14:51:51;3.03;;;2.92;;
17390;SDS011;8813;54.444;18.446;2023-02-11T14:54:20;3.95;;;3.65;;
17390;SDS011;8813;54.444;18.446;2023-02-11T14:59:51;2.42;;;2.42;;
17390;SDS011;8813;54.444;18.446;2023-02-11T15:02:23;2.60;;;2.58;;
17390;SDS011;8813;54.444;18.446;2023-02-11T15:04:52;4.22;;;2.80;;
17390;SDS011;8813;54.444;18.446;2023-02-11T15:07:19;3.50;;;3.40;;
17390;SDS011;8813;54.444;18.446;2023-02-11T15:09:47;3.15;;;3.05;;
17390;SDS011;8813;54.444;18.446;2023-02-11T15:12:16;2.70;;;2.70;;
17390;SDS011;8813;54.444;18.446;2023-02-11T15:14:48;3.35;;;3.22;;